MST,Max TemperatureF,Mean TemperatureF,Min TemperatureF,Max Dew PointF,MeanDew PointF,Min DewpointF,Max Humidity, Mean Humidity, Min Humidity, Max Sea Level PressureIn, Mean Sea Level PressureIn, Min Sea Level PressureIn, Max VisibilityMiles, Mean VisibilityMiles, Min VisibilityMiles, Max Wind SpeedMPH, Mean Wind SpeedMPH, Max Gust SpeedMPH,PrecipitationIn, CloudCover, Events, WindDirDegrees
2012-10-1,76,59,42,29,25,23,49,32,15,30.14,30.08,30.03,10,10,9,24,7,32,0.00,0,,54
2012-10-2,78,57,35,28,24,20,59,35,11,30.11,30.02,29.95,10,10,10,20,4,26,0.00,0,,239
2012-10-3,78,59,40,29,23,21,49,31,13,30.05,30.01,29.98,10,10,10,24,7,31,0.00,0,,249
2012-10-4,72,58,43,32,29,27,53,37,20,30.10,30.04,30.01,10,10,10,30,11,38,0.00,0,,237
2012-10-5,71,53,34,29,27,24,70,44,18,30.10,30.04,29.99,10,10,10,20,6,25,0.00,0,,227
2012-10-6,69,53,37,33,28,26,64,43,21,30.17,29.98,29.91,10,10,10,21,6,29,0.00,0,,219
2012-10-7,72,52,31,28,22,17,69,42,14,30.05,29.99,29.94,10,10,10,15,3,21,0.00,1,,75
2012-10-8,69,52,35,36,31,22,76,50,24,30.06,29.99,29.95,10,10,10,23,7,29,0.00,0,,235
2012-10-9,68,52,36,42,34,29,76,52,28,30.05,29.99,29.94,10,10,10,20,5,29,0.00,0,,226
2012-10-10,67,51,35,40,33,30,89,59,28,30.07,30.00,29.95,10,10,9,22,5,28,0.00,0,,210
2012-10-11,65,49,33,46,39,30,93,65,36,30.17,29.98,29.87,10,8,2,20,4,30,0.44,5,Rain,176
2012-10-12,45,39,33,43,36,31,96,86,76,30.15,30.04,29.83,10,8,2,30,9,37,0.59,6,Rain-Snow,228
2012-10-13,62,47,31,37,33,30,100,65,30,30.22,30.15,30.10,10,10,10,15,4,20,0.00,0,,177
2012-10-14,63,48,32,38,34,30,96,66,36,30.28,30.21,30.17,10,10,10,18,5,24,0.00,0,,67
2012-10-15,70,50,30,39,30,23,92,55,17,30.21,30.10,30.01,10,10,10,14,2,17,0.00,0,,202
2012-10-16,73,53,32,35,28,20,85,50,14,30.06,29.94,29.85,10,10,10,20,5,23,0.00,0,,241
2012-10-17,73,54,35,34,24,12,62,37,11,30.06,29.94,29.87,10,10,10,14,4,20,0.00,0,,261
2012-10-18,72,50,27,26,19,12,75,44,12,30.32,30.14,30.06,10,10,10,12,1,15,0.00,0,,109
2012-10-19,75,52,28,26,22,19,75,44,13,30.18,30.04,29.94,10,10,10,14,2,17,0.00,0,,206
2012-10-20,66,50,33,34,26,20,61,41,21,29.99,29.89,29.83,10,10,10,23,7,32,0.00,0,,219
2012-10-21,62,49,36,39,35,28,82,59,36,30.06,29.87,29.81,10,10,10,24,9,33,0.00,1,,245
2012-10-22,60,51,42,45,41,38,96,70,44,30.10,29.94,29.83,10,10,10,26,13,33,0.00,3,,234
2012-10-23,60,51,41,43,39,32,92,65,37,30.08,29.90,29.81,10,10,10,28,14,36,0.00,2,,228
2012-10-24,59,43,27,35,22,11,85,50,15,30.03,29.87,29.78,10,10,10,32,12,41,0.00,0,,233
2012-10-25,57,39,21,19,14,7,68,42,16,30.18,30.09,30.04,10,10,7,18,3,24,0.00,0,,311
2012-10-26,48,37,25,15,6,-1,47,31,14,30.29,30.19,30.11,10,10,10,24,12,35,0.00,0,,69
2012-10-27,62,41,19,10,7,5,56,34,12,30.25,30.15,30.05,10,10,10,13,3,16,0.00,0,,71
2012-10-28,69,46,23,14,12,8,59,36,12,30.25,30.15,30.06,10,10,10,15,2,17,0.00,0,,211
2012-10-29,69,48,26,20,12,8,55,32,9,30.27,30.18,30.14,10,10,10,15,3,20,0.00,0,,237
2012-10-30,68,46,23,17,12,10,60,36,11,30.27,30.15,30.09,10,10,10,16,2,18,0.00,0,,168
2012-10-31,68,47,25,20,15,13,60,37,13,30.23,30.13,30.06,10,10,10,13,2,16,0.00,0,,81